Castle Airport
KMER : now visible

Airfield :











YOU CAN JOIN US ON...

 
LOGIN :

Register | Disclaimer

   EN    FR    IT 

 









Legend :    VFR   Marginal VFR   IFR   Intensive IFR   Very Intensive IFR
Visi :
Ceiling :
>= 8 km
>= 3000ft
5 to 8 km
1000 to 3000 ft
1500m to 5 km
500 to 1000 ft
800 to 1500m
200 to 500 ft
< 800m
< 200 ft
Symbols :   Thunderstorms  Fog  Heavy snow  Heavy precipitations  Wind > 20 kt






- Airport Elevation : 191 ft


KMER - Castle

CURRENT METAR :
  • 070415Z AUTO 33009KT 10SM CLR 23/01 A2987 RMK AO1

EXPIRED METARs :
  • 070355Z AUTO 36009KT 10SM CLR 24/00 A2985 RMK AO1
  • 070345Z 34014KT 10SM SKC 25/00 A2985
  • 070255Z AUTO 35008KT 2 1/2SM CLR 26/03 A2985 RMK AO1
  • 070245Z 33012KT 10SM SKC 30/03 A2985

TAF KMER
Valid from the 07 at 00:00 until the 08 at 00:00 UTC


062320Z 0700/0724 31010KT P6SM SKC AMD NOT SKED
KZOA FIR / North America



MET'MAP, your aeronautical weather chart ! - Copyright ORBIFLY December 2007 - Disclaimer

ORBIFLY MET'MAP TEAM :

Programming & Development : Alexandra Zaïnal
Concept & original design : Baudouin d'Aumeries
Assistance for programming : Marc-Olivier Méhu
Technical & hardware support : Manuel Goepfert

Contact : metmap@orbifly.com




SOURCES & CREDITS :

   NOAA       Earth
Advisory